Jamestown, Louisiana
Current Conditions -  °F | °C
As of 4:56 PM on Wednesday 26 Nov 2014 (Local Time) from KMNE Reporting Station
Clear Clear  
Wind Chill: 63°   Ceiling: Unl
Heat Index: 63°   Visibility: 10mi
Dew Point: 32°   Wind: 5mph
Humidity: 32%   Direction: 280°W
Pressure: 30.15"   Gusts: NA
Location:  32.34°N, 93.21°W
Report Text: KMNE 262256Z AUTO 28004KT 10SM CLR 17/00 A3015 RMK AO2
Loading
Personal Weather Stations






























Interactive Weather Map New forecast layout! Learn more

10-Day Weather Forecast

Advertisements
Track Severe Weather on mobile